Time;durP1;ratioP1;P1;durP2;ratioP2;P2;SDS_P1;SDS_P2;PMS_P1;PMS_P2;Temp;Humidity;BMP_temperature;BMP_pressure;BME280_temperature;BME280_humidity;BME280_pressure;Samples;Min_cycle;Max_cycle;Signal;HPM_P1;HPM_P2
2023/03/24 00:02:15;;;;;;;5.22;4.22;;;;;;;;;;5021775;28;20045;-78
2023/03/24 00:04:42;;;;;;;4.10;3.65;;;;;;;;;;5014228;28;20045;-78
2023/03/24 00:07:14;;;;;;;5.93;4.38;;;;;;;;;;5023835;28;20048;-79
2023/03/24 00:09:42;;;;;;;8.80;3.88;;;;;;;;;;5014009;28;20092;-79
2023/03/24 00:12:11;;;;;;;5.50;3.72;;;;;;;;;;5015824;28;20136;-79
2023/03/24 00:14:38;;;;;;;7.80;3.83;;;;;;;;;;5019092;28;20131;-79
2023/03/24 00:17:11;;;;;;;10.23;3.95;;;;;;;;;;5017515;28;20621;-79
2023/03/24 00:19:39;;;;;;;4.13;3.72;;;;;;;;;;5013737;28;20033;-79
2023/03/24 00:22:08;;;;;;;3.45;3.15;;;;;;;;;;5022455;28;20046;-79
2023/03/24 00:24:36;;;;;;;3.40;3.20;;;;;;;;;;5024236;28;20738;-79
2023/03/24 00:27:04;;;;;;;5.68;3.67;;;;;;;;;;5025435;28;20156;-79
2023/03/24 00:29:32;;;;;;;4.13;3.80;;;;;;;;;;5021965;28;20054;-79
2023/03/24 00:32:00;;;;;;;4.68;3.92;;;;;;;;;;5019837;28;20123;-79
2023/03/24 00:34:27;;;;;;;4.20;3.83;;;;;;;;;;5017071;28;20133;-79
2023/03/24 00:36:55;;;;;;;4.20;3.80;;;;;;;;;;5027649;28;20078;-79
2023/03/24 00:39:22;;;;;;;8.52;4.38;;;;;;;;;;5024098;28;20116;-78
2023/03/24 00:41:50;;;;;;;5.72;4.70;;;;;;;;;;5020347;28;20056;-79
2023/03/24 00:44:17;;;;;;;4.80;4.40;;;;;;;;;;5022370;28;20041;-79
2023/03/24 00:46:54;;;;;;;4.80;4.40;;;;;;;;;;5038756;28;20050;-79
2023/03/24 00:49:41;;;;;;;6.68;4.85;;;;;;;;;;5018869;28;20483;-79
2023/03/24 00:52:10;;;;;;;7.45;3.97;;;;;;;;;;5023754;28;20052;-79
2023/03/24 00:54:38;;;;;;;8.50;4.18;;;;;;;;;;5013975;28;20053;-79
2023/03/24 00:57:07;;;;;;;4.07;3.78;;;;;;;;;;5018594;28;20049;-79
2023/03/24 00:59:41;;;;;;;4.72;4.07;;;;;;;;;;5027258;28;20548;-79
2023/03/24 01:02:12;;;;;;;4.72;3.97;;;;;;;;;;5026991;28;20041;-79
2023/03/24 01:04:46;;;;;;;5.55;4.13;;;;;;;;;;5018795;28;20045;-79
2023/03/24 01:07:17;;;;;;;4.82;4.15;;;;;;;;;;5024512;28;20073;-79
2023/03/24 01:09:50;;;;;;;5.90;4.63;;;;;;;;;;5024483;28;20056;-79
2023/03/24 01:12:20;;;;;;;4.70;4.03;;;;;;;;;;5010598;28;20045;-79
2023/03/24 01:14:48;;;;;;;4.40;4.00;;;;;;;;;;5016576;28;20049;-79
2023/03/24 01:17:15;;;;;;;7.72;4.50;;;;;;;;;;5017456;28;20128;-79
2023/03/24 01:19:43;;;;;;;6.50;4.18;;;;;;;;;;5021467;28;20083;-79
2023/03/24 01:22:11;;;;;;;6.47;4.13;;;;;;;;;;5022441;28;20045;-79
2023/03/24 01:24:39;;;;;;;5.00;4.50;;;;;;;;;;5025823;28;20073;-79
2023/03/24 01:27:06;;;;;;;5.35;4.10;;;;;;;;;;5017790;28;20053;-79
2023/03/24 01:29:33;;;;;;;7.60;4.00;;;;;;;;;;5010719;28;20051;-79
2023/03/24 01:32:01;;;;;;;6.45;4.13;;;;;;;;;;5023958;28;20124;-79
2023/03/24 01:34:28;;;;;;;4.82;3.90;;;;;;;;;;5018876;28;20508;-79
2023/03/24 01:36:56;;;;;;;4.20;3.88;;;;;;;;;;5020361;28;20553;-79
2023/03/24 01:39:23;;;;;;;4.80;4.30;;;;;;;;;;5035311;28;20504;-78
2023/03/24 01:41:51;;;;;;;5.07;4.20;;;;;;;;;;5024918;28;20124;-79
2023/03/24 01:44:27;;;;;;;4.22;3.83;;;;;;;;;;5022178;28;20049;-79
2023/03/24 01:46:56;;;;;;;4.68;4.10;;;;;;;;;;5025222;28;20056;-79
2023/03/24 01:49:25;;;;;;;4.25;3.90;;;;;;;;;;5021676;28;20045;-79
2023/03/24 01:51:54;;;;;;;3.95;3.65;;;;;;;;;;5022746;28;20058;-79
2023/03/24 01:54:21;;;;;;;4.40;4.00;;;;;;;;;;5023018;28;20044;-79
2023/03/24 01:56:55;;;;;;;4.25;3.95;;;;;;;;;;5039661;28;20038;-79
2023/03/24 01:59:24;;;;;;;4.45;4.05;;;;;;;;;;5015981;28;20052;-79
2023/03/24 02:02:08;;;;;;;4.20;3.80;;;;;;;;;;5020541;28;20061;-79
2023/03/24 02:04:45;;;;;;;5.90;3.75;;;;;;;;;;5018191;28;20167;-79
2023/03/24 02:07:36;;;;;;;4.55;3.90;;;;;;;;;;5031342;28;20052;-79
2023/03/24 02:10:06;;;;;;;4.00;3.60;;;;;;;;;;5010769;28;20050;-79
2023/03/24 02:12:34;;;;;;;5.70;3.50;;;;;;;;;;5015975;28;20055;-79
2023/03/24 02:15:04;;;;;;;4.28;3.50;;;;;;;;;;5019321;28;20076;-78
2023/03/24 02:17:36;;;;;;;4.10;3.30;;;;;;;;;;5020240;28;20065;-79
2023/03/24 02:20:10;;;;;;;4.43;3.40;;;;;;;;;;5027437;28;20037;-79
2023/03/24 02:22:37;;;;;;;;;;;;;;;;;;5009230;28;20060;-79
2023/03/24 02:25:08;;;;;;;5.13;3.38;;;;;;;;;;5038087;28;20015;-79
2023/03/24 02:27:46;;;;;;;4.45;3.65;;;;;;;;;;5023353;28;20140;-79
2023/03/24 02:30:22;;;;;;;5.13;3.47;;;;;;;;;;5022709;28;20134;-79
2023/03/24 02:33:10;;;;;;;4.32;3.42;;;;;;;;;;5023696;28;20518;-79
2023/03/24 02:35:56;;;;;;;3.60;3.30;;;;;;;;;;5016727;28;20049;-79
2023/03/24 02:38:44;;;;;;;5.38;3.60;;;;;;;;;;5020461;28;20569;-79
2023/03/24 02:41:29;;;;;;;3.13;2.83;;;;;;;;;;5019263;28;20053;-79
2023/03/24 02:44:14;;;;;;;5.57;3.42;;;;;;;;;;5025688;28;20049;-79
2023/03/24 02:46:45;;;;;;;5.35;3.67;;;;;;;;;;5016648;28;20136;-79
2023/03/24 02:49:18;;;;;;;3.85;3.40;;;;;;;;;;5023312;28;20057;-78
2023/03/24 02:51:49;;;;;;;3.70;3.35;;;;;;;;;;5016000;28;20038;-79
2023/03/24 02:54:24;;;;;;;3.78;3.47;;;;;;;;;;5016006;28;20092;-78
2023/03/24 02:56:55;;;;;;;3.85;3.40;;;;;;;;;;5012945;28;20038;-79
2023/03/24 02:59:39;;;;;;;3.80;3.40;;;;;;;;;;5023522;28;20041;-79
2023/03/24 03:02:27;;;;;;;4.82;3.72;;;;;;;;;;5021636;28;20192;-79
2023/03/24 03:05:04;;;;;;;4.75;3.40;;;;;;;;;;5022811;28;20057;-79
2023/03/24 03:07:36;;;;;;;3.50;3.20;;;;;;;;;;5016772;28;20349;-79
2023/03/24 03:10:19;;;;;;;3.33;3.13;;;;;;;;;;5024135;28;20053;-79
2023/03/24 03:12:48;;;;;;;3.45;3.15;;;;;;;;;;5021969;28;20053;-79
2023/03/24 03:15:20;;;;;;;3.72;3.42;;;;;;;;;;5021178;28;20080;-79
2023/03/24 03:17:51;;;;;;;4.07;3.13;;;;;;;;;;5026121;28;20050;-79
2023/03/24 03:20:21;;;;;;;3.38;3.03;;;;;;;;;;5015135;28;20293;-79
2023/03/24 03:22:51;;;;;;;2.78;2.58;;;;;;;;;;5037971;28;20564;-79
2023/03/24 03:25:21;;;;;;;3.53;2.92;;;;;;;;;;5008518;28;20108;-79
2023/03/24 03:27:51;;;;;;;3.38;3.05;;;;;;;;;;5021501;28;20076;-79
2023/03/24 03:30:22;;;;;;;3.20;2.60;;;;;;;;;;5023637;28;20053;-79
2023/03/24 03:32:52;;;;;;;4.35;3.38;;;;;;;;;;5023276;28;20085;-79
2023/03/24 03:35:21;;;;;;;4.40;3.03;;;;;;;;;;5022261;28;20045;-78
2023/03/24 03:37:59;;;;;;;2.90;2.70;;;;;;;;;;5022888;28;20081;-79
2023/03/24 03:40:26;;;;;;;3.08;2.78;;;;;;;;;;5039276;28;20038;-79
2023/03/24 03:43:00;;;;;;;4.22;2.78;;;;;;;;;;5023375;28;20050;-79
2023/03/24 03:45:28;;;;;;;3.22;2.92;;;;;;;;;;5025791;28;20050;-79
2023/03/24 03:47:56;;;;;;;3.25;2.95;;;;;;;;;;5028672;28;20045;-79
2023/03/24 03:50:23;;;;;;;2.90;2.70;;;;;;;;;;5027473;28;20570;-79
2023/03/24 03:52:51;;;;;;;2.90;2.70;;;;;;;;;;5027875;28;20456;-79
2023/03/24 03:55:19;;;;;;;14.30;9.35;;;;;;;;;;5026073;28;20128;-78
2023/03/24 03:57:46;;;;;;;3.20;2.90;;;;;;;;;;5022560;28;20074;-78
2023/03/24 04:00:43;;;;;;;2.90;2.70;;;;;;;;;;5018147;28;20424;-79
2023/03/24 04:03:50;;;;;;;2.67;2.50;;;;;;;;;;5019640;28;20124;-79
2023/03/24 04:06:43;;;;;;;3.50;3.20;;;;;;;;;;5022154;28;20480;-79
2023/03/24 04:09:23;;;;;;;2.72;2.53;;;;;;;;;;5025145;28;20047;-79
2023/03/24 04:12:09;;;;;;;3.55;2.90;;;;;;;;;;5020083;28;20463;-79
2023/03/24 04:14:39;;;;;;;7.25;2.67;;;;;;;;;;5025360;28;20037;-78
2023/03/24 04:17:42;;;;;;;4.40;3.20;;;;;;;;;;5026489;28;20043;-79
2023/03/24 04:20:24;;;;;;;3.13;2.85;;;;;;;;;;5023965;28;20049;-78
2023/03/24 04:22:57;;;;;;;3.63;3.00;;;;;;;;;;5022241;28;20071;-79
2023/03/24 04:25:25;;;;;;;4.55;3.20;;;;;;;;;;5016710;28;20053;-79
2023/03/24 04:28:00;;;;;;;4.47;3.83;;;;;;;;;;5025492;28;20548;-78
2023/03/24 04:30:42;;;;;;;4.55;3.60;;;;;;;;;;5024789;28;20049;-79
2023/03/24 04:33:16;;;;;;;3.65;3.22;;;;;;;;;;5019818;28;20045;-79
2023/03/24 04:35:51;;;;;;;4.25;3.45;;;;;;;;;;5017004;28;20453;-79
2023/03/24 04:38:26;;;;;;;4.05;3.65;;;;;;;;;;5026029;28;20046;-79
2023/03/24 04:41:09;;;;;;;5.05;3.50;;;;;;;;;;5010439;28;20049;-79
2023/03/24 04:43:38;;;;;;;5.20;4.30;;;;;;;;;;5023372;28;20430;-79
2023/03/24 04:46:08;;;;;;;4.30;3.70;;;;;;;;;;5022865;28;20461;-79
2023/03/24 04:48:50;;;;;;;6.30;3.88;;;;;;;;;;5026540;28;20049;-79
2023/03/24 04:51:24;;;;;;;5.28;3.92;;;;;;;;;;5023730;28;20054;-79
2023/03/24 04:54:00;;;;;;;5.60;4.50;;;;;;;;;;5024308;28;20045;-79
2023/03/24 04:56:38;;;;;;;6.85;4.25;;;;;;;;;;5025529;28;20111;-79
2023/03/24 05:16:03;;;;;;;8.70;5.32;;;;;;;;;;4908923;29;20038;-88
2023/03/24 05:23:24;;;;;;;6.82;4.60;;;;;;;;;;4912919;29;20075;-88
2023/03/24 05:27:03;;;;;;;6.53;4.35;;;;;;;;;;4893228;29;20082;-88
2023/03/24 05:30:43;;;;;;;;;;;;;;;;;;;;;
2023/03/24 05:53:57;;;;;;;8.10;5.60;;;;;;;;;;4926197;29;20055;-88
2023/03/24 06:01:29;;;;;;;6.50;5.55;;;;;;;;;;4837406;29;20132;-89
2023/03/24 06:09:14;;;;;;;6.18;4.20;;;;;;;;;;4869388;29;20171;-87
2023/03/24 06:13:09;;;;;;;6.03;4.93;;;;;;;;;;4852434;29;20124;-88
2023/03/24 06:17:13;;;;;;;6.90;4.70;;;;;;;;;;4862900;29;20359;-86
2023/03/24 06:20:55;;;;;;;5.68;5.10;;;;;;;;;;4828570;29;20034;-89
2023/03/24 06:24:45;;;;;;;7.88;4.95;;;;;;;;;;4856784;29;20167;-89
2023/03/24 06:28:21;;;;;;;9.38;4.80;;;;;;;;;;4868503;29;20025;-88
2023/03/24 06:36:26;;;;;;;24.55;20.08;;;;;;;;;;4929342;29;20125;-88
2023/03/24 06:39:46;;;;;;;9.73;5.43;;;;;;;;;;4976019;28;20074;-89
2023/03/24 06:42:41;;;;;;;5.65;4.25;;;;;;;;;;5014005;23;20381;-82
2023/03/24 06:45:10;;;;;;;8.18;4.82;;;;;;;;;;5000354;28;20389;-78
2023/03/24 06:47:38;;;;;;;4.78;4.40;;;;;;;;;;4999526;28;20061;-83
2023/03/24 06:50:06;;;;;;;4.40;4.10;;;;;;;;;;5002471;28;20507;-80
2023/03/24 06:52:34;;;;;;;6.90;4.90;;;;;;;;;;4997468;28;20502;-80
2023/03/24 06:55:02;;;;;;;5.05;4.22;;;;;;;;;;5002753;28;20046;-83
2023/03/24 06:57:30;;;;;;;6.43;4.65;;;;;;;;;;5001443;28;20464;-83
2023/03/24 07:00:22;;;;;;;6.22;4.70;;;;;;;;;;4998583;28;20049;-83
2023/03/24 07:03:06;;;;;;;5.38;4.82;;;;;;;;;;4998255;28;20575;-79
2023/03/24 07:05:38;;;;;;;6.93;4.78;;;;;;;;;;5017106;28;20634;-82
2023/03/24 07:08:06;;;;;;;5.97;4.65;;;;;;;;;;5011705;28;20064;-83
2023/03/24 07:10:58;;;;;;;5.00;4.30;;;;;;;;;;4997496;28;20065;-79
2023/03/24 07:13:25;;;;;;;8.75;4.82;;;;;;;;;;5000130;28;20050;-80
2023/03/24 07:16:00;;;;;;;6.82;5.13;;;;;;;;;;4996487;28;20534;-81
2023/03/24 07:18:27;;;;;;;7.30;4.80;;;;;;;;;;4992846;28;20042;-84
2023/03/24 07:21:02;;;;;;;9.25;4.22;;;;;;;;;;4995832;28;20034;-81
2023/03/24 07:23:31;;;;;;;5.65;4.65;;;;;;;;;;5009449;28;20380;-81
2023/03/24 07:26:15;;;;;;;7.82;4.47;;;;;;;;;;4997141;28;20431;-80
2023/03/24 07:28:46;;;;;;;6.35;4.80;;;;;;;;;;5007487;28;21361;-81
2023/03/24 07:31:36;;;;;;;4.85;4.43;;;;;;;;;;4981158;28;20368;-80
2023/03/24 07:34:07;;;;;;;7.63;5.05;;;;;;;;;;5021955;28;20037;-80
2023/03/24 07:36:39;;;;;;;5.00;4.50;;;;;;;;;;5001526;28;20042;-81
2023/03/24 07:39:12;;;;;;;5.38;4.43;;;;;;;;;;4983130;28;20045;-80
2023/03/24 07:41:40;;;;;;;13.27;5.05;;;;;;;;;;5003585;28;20077;-82
2023/03/24 07:44:17;;;;;;;6.22;4.78;;;;;;;;;;5005537;28;20046;-84
2023/03/24 07:46:49;;;;;;;;;;;;;;;;;;5000025;28;20389;-79
2023/03/24 07:49:16;;;;;;;8.52;4.70;;;;;;;;;;5003161;28;19922;-81
2023/03/24 07:52:07;;;;;;;11.38;4.70;;;;;;;;;;5003446;28;20050;-82
2023/03/24 07:54:38;;;;;;;8.27;5.22;;;;;;;;;;5003631;28;20100;-80
2023/03/24 07:57:05;;;;;;;5.47;4.50;;;;;;;;;;5001763;28;20056;-82
2023/03/24 07:59:36;;;;;;;5.18;4.05;;;;;;;;;;5005878;28;20099;-80
2023/03/24 08:02:18;;;;;;;5.70;5.13;;;;;;;;;;5000362;28;20053;-80
2023/03/24 08:05:07;;;;;;;6.25;5.05;;;;;;;;;;5004489;28;20060;-80
2023/03/24 08:07:54;;;;;;;5.40;4.90;;;;;;;;;;5001819;28;20052;-80
2023/03/24 08:10:22;;;;;;;5.32;4.80;;;;;;;;;;5004377;28;20123;-80
2023/03/24 08:12:50;;;;;;;5.43;4.93;;;;;;;;;;5003215;28;20503;-82
2023/03/24 08:15:18;;;;;;;6.38;5.20;;;;;;;;;;5000244;28;20065;-80
2023/03/24 08:17:47;;;;;;;7.00;4.85;;;;;;;;;;5002315;28;20077;-82
2023/03/24 08:20:15;;;;;;;5.38;4.88;;;;;;;;;;5003456;28;20065;-79
2023/03/24 08:22:43;;;;;;;5.85;5.35;;;;;;;;;;5003050;28;20046;-82
2023/03/24 08:25:11;;;;;;;6.57;4.65;;;;;;;;;;5012491;28;20049;-83
2023/03/24 08:27:42;;;;;;;5.40;4.60;;;;;;;;;;5005926;28;20276;-80
2023/03/24 08:30:10;;;;;;;6.22;4.88;;;;;;;;;;5002155;28;20158;-82
2023/03/24 08:32:42;;;;;;;5.78;5.22;;;;;;;;;;5005661;28;20074;-81
2023/03/24 08:35:13;;;;;;;6.30;5.20;;;;;;;;;;5009158;28;20051;-83
2023/03/24 08:37:44;;;;;;;8.35;5.25;;;;;;;;;;5017028;28;20049;-85
2023/03/24 08:40:17;;;;;;;5.05;4.60;;;;;;;;;;5018376;28;20038;-83
2023/03/24 08:42:47;;;;;;;6.50;5.90;;;;;;;;;;5018407;28;20380;-81
2023/03/24 08:45:15;;;;;;;7.28;5.68;;;;;;;;;;5018680;28;20367;-81
2023/03/24 08:47:42;;;;;;;6.65;5.78;;;;;;;;;;5007984;28;20173;-81
2023/03/24 08:50:10;;;;;;;5.90;5.30;;;;;;;;;;4996975;28;20050;-82
2023/03/24 08:52:37;;;;;;;5.10;4.60;;;;;;;;;;4997110;28;20046;-83
2023/03/24 08:55:06;;;;;;;6.53;5.05;;;;;;;;;;4997609;28;20054;-83
2023/03/24 08:57:33;;;;;;;7.32;5.13;;;;;;;;;;4992008;28;20065;-81
2023/03/24 09:00:06;;;;;;;6.35;5.30;;;;;;;;;;4990182;28;20046;-83
2023/03/24 09:02:35;;;;;;;7.78;4.72;;;;;;;;;;4994343;28;20786;-80
2023/03/24 09:05:02;;;;;;;4.30;3.90;;;;;;;;;;4998616;28;20093;-82
2023/03/24 09:07:30;;;;;;;5.25;4.50;;;;;;;;;;4996534;28;20050;-80
2023/03/24 09:09:57;;;;;;;6.18;4.90;;;;;;;;;;4992498;28;20070;-81
2023/03/24 09:12:25;;;;;;;5.30;4.80;;;;;;;;;;5003858;28;20433;-80
2023/03/24 09:14:52;;;;;;;5.57;4.93;;;;;;;;;;5007904;28;20314;-81
2023/03/24 09:17:20;;;;;;;6.70;5.30;;;;;;;;;;5003449;28;20056;-80
2023/03/24 09:19:47;;;;;;;5.47;4.88;;;;;;;;;;4998878;28;20038;-81
2023/03/24 09:22:15;;;;;;;5.40;4.90;;;;;;;;;;5015796;28;20077;-81
2023/03/24 09:24:43;;;;;;;5.60;4.65;;;;;;;;;;5011981;28;20053;-82
2023/03/24 09:27:10;;;;;;;5.25;4.68;;;;;;;;;;5010248;28;20053;-81
2023/03/24 09:29:38;;;;;;;5.18;4.68;;;;;;;;;;5010223;28;20523;-80
2023/03/24 09:32:05;;;;;;;7.07;5.93;;;;;;;;;;5014609;28;20069;-82
2023/03/24 09:34:33;;;;;;;7.57;5.05;;;;;;;;;;5013230;28;20117;-80
2023/03/24 09:37:00;;;;;;;6.95;5.30;;;;;;;;;;5007414;28;20050;-80
2023/03/24 09:39:28;;;;;;;5.22;4.72;;;;;;;;;;5024057;28;20045;-83
2023/03/24 09:41:55;;;;;;;6.57;5.30;;;;;;;;;;5014807;28;20050;-81
2023/03/24 09:44:52;;;;;;;5.63;5.13;;;;;;;;;;5012283;28;20065;-79
2023/03/24 09:47:31;;;;;;;9.55;5.50;;;;;;;;;;4989826;28;20117;-82
2023/03/24 09:50:01;;;;;;;10.35;5.20;;;;;;;;;;4987721;28;20070;-80
2023/03/24 09:52:33;;;;;;;8.88;5.88;;;;;;;;;;4988247;28;20058;-80
2023/03/24 09:55:03;;;;;;;;;;;;;;;;;;4993690;28;20130;-82
2023/03/24 09:57:36;;;;;;;8.15;5.35;;;;;;;;;;4988060;28;19932;-80
2023/03/24 10:00:22;;;;;;;8.43;5.53;;;;;;;;;;4993865;28;20054;-80
2023/03/24 10:02:51;;;;;;;8.85;5.20;;;;;;;;;;5001420;28;20092;-82
2023/03/24 10:05:26;;;;;;;8.55;6.07;;;;;;;;;;5010242;28;20076;-78
2023/03/24 10:08:02;;;;;;;7.80;5.63;;;;;;;;;;5007791;28;20088;-80
2023/03/24 10:10:39;;;;;;;7.75;6.22;;;;;;;;;;5007107;28;20082;-79
2023/03/24 10:13:10;;;;;;;6.97;6.25;;;;;;;;;;5008700;28;20050;-82
2023/03/24 10:15:45;;;;;;;7.82;6.05;;;;;;;;;;5016363;28;20054;-81
2023/03/24 10:18:24;;;;;;;7.10;6.40;;;;;;;;;;5012739;28;20354;-79
2023/03/24 10:21:06;;;;;;;9.45;6.53;;;;;;;;;;5006297;28;20574;-79
2023/03/24 10:23:46;;;;;;;7.45;5.95;;;;;;;;;;4994705;28;20468;-80
2023/03/24 10:26:16;;;;;;;6.80;6.20;;;;;;;;;;4994276;28;20441;-79
2023/03/24 10:28:53;;;;;;;11.10;7.53;;;;;;;;;;4997556;28;20525;-81
2023/03/24 10:31:26;;;;;;;7.40;6.70;;;;;;;;;;4993494;28;20445;-83
2023/03/24 10:33:54;;;;;;;12.20;6.50;;;;;;;;;;4985698;28;20049;-79
2023/03/24 10:36:22;;;;;;;8.40;5.97;;;;;;;;;;4990476;28;20055;-80
2023/03/24 10:38:49;;;;;;;10.95;6.22;;;;;;;;;;4994072;28;20522;-80
2023/03/24 10:41:21;;;;;;;7.78;6.97;;;;;;;;;;5001924;28;20066;-82
2023/03/24 10:43:48;;;;;;;;;;;;;;;;;;4998913;28;20505;-79
2023/03/24 10:46:17;;;;;;;7.00;6.30;;;;;;;;;;5001545;28;19922;-79
2023/03/24 10:48:46;;;;;;;6.80;6.20;;;;;;;;;;5003003;28;20084;-82
2023/03/24 10:51:19;;;;;;;7.65;6.85;;;;;;;;;;5007264;28;20081;-80
2023/03/24 10:53:47;;;;;;;6.28;5.68;;;;;;;;;;5002007;28;20049;-80
2023/03/24 10:56:16;;;;;;;6.45;5.85;;;;;;;;;;4989010;28;20133;-83
2023/03/24 10:58:44;;;;;;;5.82;5.32;;;;;;;;;;5006556;28;20046;-80
2023/03/24 11:01:29;;;;;;;5.40;4.95;;;;;;;;;;5075964;22;20065;-79
2023/03/24 11:04:00;;;;;;;7.47;6.65;;;;;;;;;;5037555;28;20450;-78
2023/03/24 11:06:27;;;;;;;6.80;5.97;;;;;;;;;;5037211;28;20105;-79
2023/03/24 11:09:20;;;;;;;6.90;5.68;;;;;;;;;;5037792;28;20641;-78
2023/03/24 11:11:49;;;;;;;6.65;5.90;;;;;;;;;;5030310;28;20057;-77
2023/03/24 11:14:21;;;;;;;7.05;5.90;;;;;;;;;;5030304;28;20049;-78
2023/03/24 11:16:49;;;;;;;6.60;5.22;;;;;;;;;;5030524;28;20049;-78
2023/03/24 11:19:19;;;;;;;7.35;5.90;;;;;;;;;;5029123;28;20046;-77
2023/03/24 11:21:50;;;;;;;6.28;5.65;;;;;;;;;;5029236;28;20414;-78
2023/03/24 11:24:19;;;;;;;27.45;13.05;;;;;;;;;;5029002;28;20388;-78
2023/03/24 11:26:46;;;;;;;5.78;5.25;;;;;;;;;;5029455;28;20568;-78
2023/03/24 11:29:23;;;;;;;7.22;5.35;;;;;;;;;;5028938;28;20089;-78
2023/03/24 11:31:52;;;;;;;5.85;5.18;;;;;;;;;;5028962;28;20065;-77
2023/03/24 11:34:23;;;;;;;5.88;5.45;;;;;;;;;;5028240;28;20045;-77
2023/03/24 11:36:57;;;;;;;7.18;5.90;;;;;;;;;;5029114;28;20491;-78
2023/03/24 11:39:28;;;;;;;6.88;6.00;;;;;;;;;;5029383;28;20096;-77
2023/03/24 11:41:59;;;;;;;6.88;5.10;;;;;;;;;;5029076;28;20073;-78
2023/03/24 11:44:30;;;;;;;8.35;5.40;;;;;;;;;;5029706;28;20089;-78
2023/03/24 11:47:04;;;;;;;7.85;4.45;;;;;;;;;;5031671;28;20045;-78
2023/03/24 11:49:32;;;;;;;6.30;5.70;;;;;;;;;;5031794;28;20084;-79
2023/03/24 11:52:00;;;;;;;6.20;5.47;;;;;;;;;;5032147;28;20118;-79
2023/03/24 11:54:29;;;;;;;9.25;5.85;;;;;;;;;;5031237;28;20037;-78
2023/03/24 11:57:03;;;;;;;5.72;5.32;;;;;;;;;;5031419;28;20049;-78
2023/03/24 11:59:47;;;;;;;10.93;5.70;;;;;;;;;;5032608;28;20056;-78
2023/03/24 12:02:34;;;;;;;9.10;6.63;;;;;;;;;;5030573;28;20054;-79
2023/03/24 12:05:23;;;;;;;6.20;5.40;;;;;;;;;;5030840;28;20450;-78
2023/03/24 12:08:03;;;;;;;6.72;5.90;;;;;;;;;;5029906;28;20080;-78
2023/03/24 12:10:48;;;;;;;6.45;5.47;;;;;;;;;;5030089;28;20041;-79
2023/03/24 12:13:17;;;;;;;5.15;4.60;;;;;;;;;;5029821;28;20054;-78
2023/03/24 12:16:03;;;;;;;6.97;5.55;;;;;;;;;;5031598;28;20046;-78
2023/03/24 12:18:42;;;;;;;7.63;5.30;;;;;;;;;;5031788;28;20100;-78
2023/03/24 12:21:49;;;;;;;9.43;5.45;;;;;;;;;;5030599;28;20120;-78
2023/03/24 12:24:25;;;;;;;7.75;5.72;;;;;;;;;;4951554;29;20074;-78
2023/03/24 12:26:57;;;;;;;11.35;6.60;;;;;;;;;;4953159;28;20091;-79
2023/03/24 12:29:46;;;;;;;9.82;5.88;;;;;;;;;;4988057;28;20509;-78
2023/03/24 12:32:29;;;;;;;11.15;7.13;;;;;;;;;;5030479;28;20065;-79
2023/03/24 12:35:08;;;;;;;7.72;6.55;;;;;;;;;;5030399;28;20436;-79
2023/03/24 12:37:49;;;;;;;7.80;5.93;;;;;;;;;;5030841;28;20474;-79
2023/03/24 12:40:35;;;;;;;8.45;5.50;;;;;;;;;;5030539;28;20057;-78
2023/03/24 12:43:23;;;;;;;6.50;4.97;;;;;;;;;;5028370;28;20084;-79
2023/03/24 12:45:53;;;;;;;6.57;5.15;;;;;;;;;;5030660;28;20072;-79
2023/03/24 12:48:38;;;;;;;6.45;5.50;;;;;;;;;;5034625;28;20053;-78
2023/03/24 12:51:15;;;;;;;6.30;5.60;;;;;;;;;;5011825;28;20073;-78
2023/03/24 12:53:58;;;;;;;7.45;5.57;;;;;;;;;;5010708;28;20112;-79
2023/03/24 12:56:39;;;;;;;8.88;4.75;;;;;;;;;;5015869;28;20080;-79
2023/03/24 12:59:33;;;;;;;5.53;5.03;;;;;;;;;;5029054;28;20530;-78
2023/03/24 13:02:03;;;;;;;7.35;5.50;;;;;;;;;;4997923;28;20136;-78
2023/03/24 13:04:33;;;;;;;5.43;4.93;;;;;;;;;;5027285;28;20064;-78
2023/03/24 13:07:10;;;;;;;7.85;5.00;;;;;;;;;;5027024;28;20068;-78
2023/03/24 13:09:58;;;;;;;7.38;5.97;;;;;;;;;;5026900;28;20079;-79
2023/03/24 13:12:25;;;;;;;6.50;5.85;;;;;;;;;;5007113;28;20053;-79
2023/03/24 13:15:25;;;;;;;7.60;6.07;;;;;;;;;;5016654;28;20041;-79
2023/03/24 13:17:55;;;;;;;7.57;5.57;;;;;;;;;;4964932;28;20049;-80
2023/03/24 13:20:26;;;;;;;7.47;5.65;;;;;;;;;;5026457;28;20172;-79
2023/03/24 13:22:54;;;;;;;6.85;5.85;;;;;;;;;;5027256;28;20128;-79
2023/03/24 13:25:54;;;;;;;6.05;5.55;;;;;;;;;;5024779;28;20046;-79
2023/03/24 13:28:27;;;;;;;6.80;5.30;;;;;;;;;;4997919;28;20053;-79
2023/03/24 13:30:55;;;;;;;8.23;4.97;;;;;;;;;;5012851;28;20139;-79
2023/03/24 13:33:25;;;;;;;5.07;4.57;;;;;;;;;;5024326;28;20123;-79
2023/03/24 13:36:16;;;;;;;7.03;5.90;;;;;;;;;;5026644;28;20045;-79
2023/03/24 13:38:47;;;;;;;6.82;6.13;;;;;;;;;;5018807;28;20107;-79
2023/03/24 13:41:19;;;;;;;7.25;5.90;;;;;;;;;;5027817;28;20084;-79
2023/03/24 13:43:49;;;;;;;6.95;5.00;;;;;;;;;;5027332;28;20084;-79
2023/03/24 13:46:17;;;;;;;4.72;3.78;;;;;;;;;;5027293;28;20057;-79
2023/03/24 13:48:46;;;;;;;5.95;4.88;;;;;;;;;;5020886;28;20068;-79
2023/03/24 13:51:30;;;;;;;5.68;4.60;;;;;;;;;;5019227;28;20132;-79
2023/03/24 13:53:58;;;;;;;5.10;4.47;;;;;;;;;;5025584;28;20080;-79
2023/03/24 13:56:34;;;;;;;4.80;4.38;;;;;;;;;;5028283;28;20402;-79
2023/03/24 13:59:02;;;;;;;4.97;4.45;;;;;;;;;;5028713;28;20048;-79
2023/03/24 14:01:32;;;;;;;4.78;4.07;;;;;;;;;;5026903;28;20053;-80
2023/03/24 14:04:14;;;;;;;4.63;4.32;;;;;;;;;;5027341;28;20037;-79
2023/03/24 14:06:47;;;;;;;4.15;3.72;;;;;;;;;;5027470;28;20526;-79
2023/03/24 14:09:22;;;;;;;4.22;3.80;;;;;;;;;;5028066;28;20053;-79
2023/03/24 14:11:56;;;;;;;4.30;3.83;;;;;;;;;;5028133;28;20501;-79
2023/03/24 14:14:24;;;;;;;4.43;4.03;;;;;;;;;;5031407;28;20055;-79
2023/03/24 14:16:52;;;;;;;4.32;3.30;;;;;;;;;;5034220;28;20213;-79
2023/03/24 14:19:24;;;;;;;4.93;4.18;;;;;;;;;;5035138;28;20056;-79
2023/03/24 14:22:03;;;;;;;4.03;3.72;;;;;;;;;;5030817;28;20480;-79
2023/03/24 14:24:31;;;;;;;4.38;3.50;;;;;;;;;;5026951;28;20518;-79
2023/03/24 14:26:59;;;;;;;4.32;3.47;;;;;;;;;;5027480;28;20513;-79
2023/03/24 14:29:36;;;;;;;3.97;3.58;;;;;;;;;;5027470;28;20068;-79
2023/03/24 14:32:05;;;;;;;4.25;3.50;;;;;;;;;;5021669;28;20069;-79
2023/03/24 14:34:55;;;;;;;3.88;2.95;;;;;;;;;;5022851;28;20080;-79
2023/03/24 14:37:24;;;;;;;2.80;2.60;;;;;;;;;;5025279;28;20045;-79
2023/03/24 14:39:53;;;;;;;3.28;2.80;;;;;;;;;;5027208;28;20125;-78
2023/03/24 14:42:32;;;;;;;2.70;2.50;;;;;;;;;;5027305;28;20460;-79
2023/03/24 14:45:01;;;;;;;2.72;2.50;;;;;;;;;;5027364;28;20095;-79
2023/03/24 14:47:31;;;;;;;2.95;2.75;;;;;;;;;;5027406;28;20053;-78
2023/03/24 14:50:00;;;;;;;2.70;2.50;;;;;;;;;;5027619;28;20076;-79
2023/03/24 14:52:31;;;;;;;3.30;2.88;;;;;;;;;;5025402;28;20053;-79
2023/03/24 14:55:05;;;;;;;3.20;2.92;;;;;;;;;;5025588;28;20148;-79
2023/03/24 14:57:39;;;;;;;3.17;2.67;;;;;;;;;;5027626;28;20045;-79
2023/03/24 15:00:16;;;;;;;2.75;2.55;;;;;;;;;;5027729;28;20139;-79
2023/03/24 15:02:46;;;;;;;2.97;2.60;;;;;;;;;;5028040;28;20482;-79
2023/03/24 15:05:14;;;;;;;3.80;2.58;;;;;;;;;;5028242;28;20545;-79
2023/03/24 15:07:42;;;;;;;2.92;2.72;;;;;;;;;;5028644;28;20096;-79
2023/03/24 15:10:17;;;;;;;3.15;2.42;;;;;;;;;;5028739;28;20093;-79
2023/03/24 15:12:44;;;;;;;2.30;2.20;;;;;;;;;;5027799;28;20148;-79
2023/03/24 15:15:16;;;;;;;2.28;2.15;;;;;;;;;;5029097;28;20088;-80
2023/03/24 15:17:44;;;;;;;6.10;2.80;;;;;;;;;;5028184;28;20140;-80
2023/03/24 15:20:22;;;;;;;3.15;2.85;;;;;;;;;;5029092;28;20119;-79
2023/03/24 15:22:53;;;;;;;4.15;2.97;;;;;;;;;;5030359;28;20380;-80
2023/03/24 15:25:21;;;;;;;;;;;;;;;;;;5025805;28;20068;-78
2023/03/24 15:27:50;;;;;;;9.80;7.53;;;;;;;;;;5007376;28;20306;-78
2023/03/24 15:30:17;;;;;;;4.60;3.63;;;;;;;;;;5025588;28;20112;-78
2023/03/24 15:32:46;;;;;;;4.90;3.58;;;;;;;;;;5027245;28;20840;-79
2023/03/24 15:35:15;;;;;;;6.72;4.38;;;;;;;;;;5028092;28;20142;-79
2023/03/24 15:37:47;;;;;;;5.50;4.55;;;;;;;;;;5028427;28;20119;-79
2023/03/24 15:40:30;;;;;;;4.63;4.22;;;;;;;;;;5028537;28;20049;-79
2023/03/24 15:42:59;;;;;;;19.50;10.05;;;;;;;;;;5030605;28;20075;-80
2023/03/24 15:45:28;;;;;;;4.00;3.58;;;;;;;;;;5035996;28;20075;-79
2023/03/24 15:47:57;;;;;;;4.78;3.70;;;;;;;;;;5039025;28;20084;-79
2023/03/24 15:50:35;;;;;;;3.70;3.40;;;;;;;;;;5038855;28;20050;-79
2023/03/24 15:53:05;;;;;;;4.32;3.92;;;;;;;;;;5032665;28;20080;-79
2023/03/24 15:55:34;;;;;;;4.45;4.00;;;;;;;;;;5031311;28;20048;-78
2023/03/24 15:58:16;;;;;;;6.15;4.13;;;;;;;;;;5031868;28;20048;-79
2023/03/24 16:00:44;;;;;;;4.10;3.80;;;;;;;;;;5029973;28;20519;-79
2023/03/24 16:03:16;;;;;;;5.10;4.25;;;;;;;;;;5031192;28;20045;-78
2023/03/24 16:05:48;;;;;;;4.22;3.92;;;;;;;;;;5031042;28;20114;-79
2023/03/24 16:08:22;;;;;;;4.95;4.47;;;;;;;;;;5030953;28;20516;-79
2023/03/24 16:11:16;;;;;;;5.15;4.43;;;;;;;;;;5030737;28;20045;-79
2023/03/24 16:13:44;;;;;;;5.25;4.85;;;;;;;;;;5028291;28;20050;-79
2023/03/24 16:16:15;;;;;;;4.80;4.40;;;;;;;;;;5025332;28;20427;-79
2023/03/24 16:18:45;;;;;;;5.28;4.78;;;;;;;;;;5017565;28;20056;-79
2023/03/24 16:21:13;;;;;;;15.32;13.93;;;;;;;;;;5026022;28;20509;-79
2023/03/24 16:23:41;;;;;;;7.10;5.60;;;;;;;;;;5029877;28;20388;-79
2023/03/24 16:26:25;;;;;;;6.13;4.68;;;;;;;;;;5029637;28;20056;-79
2023/03/24 16:28:53;;;;;;;5.55;5.00;;;;;;;;;;5029226;28;20084;-79
2023/03/24 16:31:23;;;;;;;5.30;4.72;;;;;;;;;;5029886;28;20137;-79